Time;durP1;ratioP1;P1;durP2;ratioP2;P2;SDS_P1;SDS_P2;PMS_P1;PMS_P2;Temp;Humidity;BMP_temperature;BMP_pressure;BME280_temperature;BME280_humidity;BME280_pressure;Samples;Min_cycle;Max_cycle;Signal;HPM_P1;HPM_P2
2021/06/25 00:00:09;;;;;;;3.28;2.20;;;14.20;99.90;;;14.71;100.00;95360.00;2380842;55;34710;-52
2021/06/25 00:02:55;;;;;;;2.20;2.00;;;14.20;99.90;;;14.63;100.00;95389.00;2175004;57;26782;-53
2021/06/25 00:05:42;;;;;;;4.62;2.20;;;14.20;99.90;;;14.69;100.00;95388.00;2375364;56;27301;-53
2021/06/25 00:11:26;;;;;;;5.32;2.20;;;14.20;99.90;;;14.74;100.00;95359.00;2391167;55;33898;-53
2021/06/25 00:14:13;;;;;;;3.20;2.33;;;14.20;99.90;;;14.64;100.00;95382.00;2156293;56;26968;-53
2021/06/25 00:19:57;;;;;;;4.43;2.20;;;14.20;99.90;;;14.72;100.00;95359.00;2389687;55;34962;-53
2021/06/25 00:25:42;;;;;;;3.23;2.50;;;14.20;99.90;;;14.72;100.00;95367.00;2415345;55;34291;-53
2021/06/25 00:31:25;;;;;;;3.00;2.20;;;14.20;99.90;;;14.69;100.00;95374.00;2449144;55;34258;-54
2021/06/25 00:34:12;;;;;;;2.70;2.50;;;14.20;99.90;;;14.71;100.00;95400.00;2212838;56;27401;-52
2021/06/25 00:36:58;;;;;;;3.92;2.50;;;14.30;99.90;;;14.76;100.00;95405.00;2438206;55;26624;-54
2021/06/25 00:42:41;;;;;;;3.35;2.22;;;14.30;99.90;;;14.78;100.00;95379.00;2375478;55;34470;-52
2021/06/25 00:45:27;;;;;;;3.43;2.67;;;14.30;99.90;;;14.72;100.00;95403.00;2354212;57;26652;-57
2021/06/25 00:48:14;;;;;;;3.35;2.40;;;14.20;99.90;;;14.61;100.00;95404.00;2141980;57;27152;-53
2021/06/25 00:51:01;;;;;;;3.75;2.60;;;14.20;99.90;;;14.57;100.00;95404.00;2147167;57;26675;-53
2021/06/25 00:53:47;;;;;;;2.60;2.30;;;14.10;99.90;;;14.40;100.00;95402.00;2148152;56;26229;-53
2021/06/25 00:56:33;;;;;;;2.50;2.30;;;14.10;99.90;;;14.41;100.00;95404.00;2339611;57;26656;-52
2021/06/25 01:02:17;;;;;;;3.85;2.65;;;14.00;99.90;;;14.47;100.00;95380.00;2346785;56;34294;-53
2021/06/25 01:05:09;;;;;;;2.53;2.33;;;14.00;99.90;;;14.38;100.00;95401.00;2357444;56;26792;-53
2021/06/25 01:07:56;;;;;;;2.63;2.27;;;14.10;99.90;;;14.44;100.00;95400.00;2142347;56;26720;-52
2021/06/25 01:10:43;;;;;;;3.87;2.80;;;14.00;99.90;;;14.36;100.00;95403.00;2352056;56;26832;-52
2021/06/25 01:13:30;;;;;;;4.37;2.70;;;14.00;99.90;;;14.39;100.00;95404.00;2149231;56;27023;-52
2021/06/25 01:16:16;;;;;;;5.00;2.50;;;14.00;99.90;;;14.41;100.00;95411.00;2358673;56;26733;-52
2021/06/25 01:19:03;;;;;;;2.93;2.40;;;14.00;99.90;;;14.44;100.00;95416.00;2150071;56;26954;-52
2021/06/25 01:21:49;;;;;;;4.75;2.45;;;13.90;99.90;;;14.32;100.00;95411.00;2357640;56;27431;-53
2021/06/25 01:27:31;;;;;;;2.30;2.10;;;13.90;99.90;;;14.44;100.00;95390.00;2379913;55;34377;-53
2021/06/25 01:30:22;;;;;;;6.50;2.43;;;13.90;99.90;;;14.26;100.00;95414.00;2139106;56;26924;-54
2021/06/25 01:33:11;;;;;;;3.37;2.03;;;13.90;99.90;;;14.22;100.00;95415.00;2355256;56;26931;-52
2021/06/25 01:35:58;;;;;;;6.70;2.30;;;13.80;99.90;;;14.22;100.00;95415.00;2149176;56;27741;-51
2021/06/25 01:41:40;;;;;;;2.50;2.00;;;13.90;99.90;;;14.25;100.00;95388.00;2385306;55;34128;-52
2021/06/25 01:44:27;;;;;;;2.27;1.70;;;13.80;99.90;;;14.15;100.00;95406.00;2344345;56;27206;-52
2021/06/25 01:47:15;;;;;;;2.22;1.50;;;13.70;99.90;;;14.10;100.00;95412.00;2165073;56;26978;-53
2021/06/25 01:50:05;;;;;;;1.73;1.50;;;13.70;99.90;;;14.00;100.00;95407.00;2333790;57;26982;-53
2021/06/25 01:52:55;;;;;;;1.98;1.45;;;13.60;99.90;;;13.89;100.00;95404.00;2136050;57;27061;-51
2021/06/25 01:55:44;;;;;;;1.70;1.50;;;13.50;99.90;;;13.81;100.00;95414.00;2133347;57;26792;-52
2021/06/25 02:01:28;;;;;;;1.83;1.40;;;13.40;99.90;;;13.85;100.00;95382.00;2399756;55;33915;-52
2021/06/25 02:04:15;;;;;;;1.70;1.50;;;13.40;99.90;;;13.72;100.00;95400.00;2361881;56;27456;-52
2021/06/25 02:07:01;;;;;;;1.63;1.53;;;13.30;99.90;;;13.63;100.00;95404.00;2145547;56;26991;-52
2021/06/25 02:09:48;;;;;;;1.60;1.50;;;13.30;99.90;;;13.68;100.00;95399.00;2361517;56;26591;-52
2021/06/25 02:15:31;;;;;;;3.40;1.93;;;13.30;99.90;;;13.80;100.00;95376.00;2454863;53;33464;-52
2021/06/25 02:18:17;;;;;;;3.97;1.83;;;13.30;99.90;;;13.70;100.00;95397.00;2228239;54;26830;-53
2021/06/25 02:21:04;;;;;;;2.63;1.80;;;13.40;99.90;;;13.78;100.00;95397.00;2447983;54;26789;-52
2021/06/25 02:23:51;;;;;;;4.57;1.80;;;13.40;99.90;;;13.79;100.00;95396.00;2231358;54;26782;-52
2021/06/25 02:26:37;;;;;;;2.10;1.80;;;13.40;99.90;;;13.89;100.00;95386.00;2457762;54;26128;-53
2021/06/25 02:29:24;;;;;;;3.40;1.57;;;13.40;99.90;;;13.81;100.00;95399.00;2239637;54;26696;-52
2021/06/25 02:32:11;;;;;;;1.87;1.62;;;13.40;99.90;;;13.90;100.00;95393.00;2239705;54;26775;-52
2021/06/25 02:34:57;;;;;;;4.03;1.97;;;13.40;99.90;;;13.81;100.00;95394.00;2467536;54;26835;-52
2021/06/25 02:37:44;;;;;;;4.17;1.77;;;13.40;99.90;;;13.83;100.00;95389.00;2468152;54;26782;-53
2021/06/25 02:40:31;;;;;;;2.07;1.87;;;13.50;99.90;;;13.90;100.00;95392.00;2238749;54;26804;-54
2021/06/25 02:43:17;;;;;;;2.20;1.63;;;13.50;99.90;;;13.88;100.00;95384.00;2238529;54;27198;-53
2021/06/25 02:46:03;;;;;;;1.70;1.60;;;13.40;99.90;;;13.74;100.00;95379.00;2240265;54;26695;-53
2021/06/25 02:48:50;;;;;;;2.20;1.80;;;13.40;99.90;;;13.78;100.00;95386.00;2239812;54;26654;-52
2021/06/25 02:54:35;;;;;;;3.07;1.97;;;13.40;99.90;;;13.79;100.00;95354.00;2488259;53;34186;-52
2021/06/25 02:57:22;;;;;;;3.27;2.30;;;13.40;99.90;;;13.78;100.00;95380.00;2254202;54;26155;-52
2021/06/25 03:00:17;;;;;;;2.62;2.35;;;13.40;99.90;;;13.83;100.00;95376.00;2258291;53;26658;-53
2021/06/25 03:03:03;;;;;;;3.33;2.30;;;13.40;99.90;;;13.77;100.00;95371.00;2258182;55;26860;-52
2021/06/25 03:05:50;;;;;;;2.47;2.22;;;13.40;99.90;;;13.76;100.00;95370.00;2492526;54;26614;-52
2021/06/25 03:08:36;;;;;;;4.17;2.00;;;13.40;99.90;;;13.81;100.00;95373.00;2259908;55;26536;-51
2021/06/25 03:11:23;;;;;;;2.70;2.20;;;13.40;99.90;;;13.73;100.00;95370.00;2492910;54;27269;-51
2021/06/25 03:14:09;;;;;;;3.00;2.30;;;13.40;99.90;;;13.77;100.00;95366.00;2260014;55;26119;-51
2021/06/25 03:16:56;;;;;;;4.07;2.20;;;13.40;99.90;;;13.69;100.00;95359.00;2260986;54;27666;-51
2021/06/25 03:19:42;;;;;;;3.70;2.30;;;13.30;99.90;;;13.67;100.00;95366.00;2259246;55;26592;-52
2021/06/25 03:22:29;;;;;;;2.55;2.20;;;13.30;99.90;;;13.72;100.00;95363.00;2258824;55;27261;-52
2021/06/25 03:25:16;;;;;;;2.43;2.23;;;13.40;99.90;;;13.78;100.00;95373.00;2259210;54;26690;-51
2021/06/25 03:28:03;;;;;;;3.50;2.30;;;13.40;99.90;;;13.83;100.00;95370.00;2493049;54;26619;-52
2021/06/25 03:30:49;;;;;;;2.42;2.22;;;13.40;99.90;;;13.76;100.00;95372.00;2259453;55;26631;-52
2021/06/25 03:36:32;;;;;;;4.60;2.20;;;13.40;99.90;;;13.82;100.00;95340.00;2375701;55;33764;-51
2021/06/25 03:42:17;;;;;;;6.90;2.30;;;13.40;99.90;;;13.89;100.00;95330.00;2382623;55;34079;-51
2021/06/25 03:45:04;;;;;;;2.47;2.25;;;13.30;99.90;;;13.72;100.00;95357.00;2158667;56;27263;-52
2021/06/25 03:47:51;;;;;;;2.50;2.30;;;13.30;99.90;;;13.77;100.00;95360.00;2392888;56;27274;-51
2021/06/25 03:53:34;;;;;;;3.50;2.60;;;13.40;99.90;;;13.84;100.00;95341.00;2430073;54;33467;-51
2021/06/25 03:56:20;;;;;;;2.93;2.33;;;13.40;99.90;;;13.78;100.00;95360.00;2198913;56;26688;-51
2021/06/25 03:59:06;;;;;;;2.97;2.35;;;13.30;99.90;;;13.67;100.00;95366.00;2433159;55;26229;-52
2021/06/25 04:01:53;;;;;;;2.43;2.13;;;13.30;99.90;;;13.69;100.00;95369.00;2198442;55;26681;-51
2021/06/25 04:07:38;;;;;;;2.87;2.17;;;13.30;99.90;;;13.76;100.00;95346.00;2348280;56;35093;-51
2021/06/25 04:13:22;;;;;;;2.40;2.20;;;13.30;99.90;;;13.68;100.00;95338.00;2396441;55;34260;-52
2021/06/25 04:16:09;;;;;;;2.33;2.00;;;13.30;99.90;;;13.60;100.00;95365.00;2161084;57;26753;-51
2021/06/25 04:18:55;;;;;;;3.70;2.20;;;13.30;99.90;;;13.69;100.00;95361.00;2163044;57;26877;-51
2021/06/25 04:21:42;;;;;;;2.43;2.23;;;13.40;99.90;;;13.84;100.00;95367.00;2375525;56;27226;-52
2021/06/25 04:24:28;;;;;;;2.53;2.33;;;13.40;99.90;;;13.74;100.00;95366.00;2371460;56;26752;-52
2021/06/25 04:27:14;;;;;;;3.00;2.50;;;13.40;99.90;;;13.79;100.00;95374.00;2182933;58;26718;-51
2021/06/25 04:30:00;;;;;;;3.40;2.40;;;13.50;99.90;;;13.82;100.00;95376.00;2187659;57;26686;-51
2021/06/25 04:32:47;;;;;;;2.53;2.28;;;13.50;99.90;;;13.89;100.00;95378.00;2189292;58;27575;-51
2021/06/25 04:38:31;;;;;;;3.50;2.00;;;13.60;99.90;;;14.11;100.00;95355.00;2352130;55;33256;-51
2021/06/25 04:41:18;;;;;;;2.25;2.00;;;13.70;99.90;;;14.06;100.00;95368.00;2129205;57;26807;-50
2021/06/25 04:44:06;;;;;;;2.83;2.35;;;13.70;99.90;;;14.11;100.00;95374.00;2368137;55;26849;-51
2021/06/25 04:46:52;;;;;;;3.13;2.10;;;13.70;99.90;;;14.16;100.00;95371.00;2161374;57;26663;-51
2021/06/25 04:49:40;;;;;;;1.83;1.70;;;13.80;99.90;;;14.34;100.00;95371.00;2384017;55;26697;-51
2021/06/25 04:52:26;;;;;;;2.08;1.90;;;13.90;99.90;;;14.41;100.00;95364.00;2167327;57;26780;-50
2021/06/25 04:55:14;;;;;;;2.22;1.70;;;14.10;99.90;;;14.63;100.00;95363.00;2375434;56;27474;-51
2021/06/25 05:00:58;;;;;;;2.53;1.50;;;14.30;99.90;;;14.95;100.00;95333.00;2387533;55;34514;-52
2021/06/25 05:03:45;;;;;;;1.60;1.50;;;14.40;99.90;;;15.00;100.00;95360.00;2194281;56;27197;-51
2021/06/25 05:06:31;;;;;;;2.57;1.50;;;14.60;99.90;;;15.11;100.00;95348.00;2389812;55;27221;-52
2021/06/25 05:09:18;;;;;;;1.80;1.40;;;14.70;99.90;;;15.31;100.00;95340.00;2193838;56;26788;-51
2021/06/25 05:12:07;;;;;;;3.15;1.33;;;14.80;99.90;;;15.37;100.00;95348.00;2389386;55;27104;-50
2021/06/25 05:17:51;;;;;;;5.72;1.58;;;14.90;99.90;;;15.44;100.00;95311.00;2468708;53;33837;-51
2021/06/25 05:20:37;;;;;;;1.62;1.37;;;14.90;99.90;;;15.43;100.00;95329.00;2223263;55;27325;-51
2021/06/25 05:23:24;;;;;;;2.37;1.35;;;15.00;99.90;;;15.60;100.00;95330.00;2489652;53;27235;-51
2021/06/25 05:26:10;;;;;;;2.47;1.27;;;15.10;99.90;;;15.61;100.00;95328.00;2268428;54;26702;-51
2021/06/25 05:28:57;;;;;;;1.60;1.50;;;14.90;99.90;;;15.42;100.00;95326.00;2488103;53;26794;-51
2021/06/25 05:31:43;;;;;;;2.37;1.70;;;15.10;99.90;;;15.54;100.00;95314.00;2269213;54;26770;-51
2021/06/25 05:34:29;;;;;;;1.50;1.40;;;15.00;99.90;;;15.45;100.00;95315.00;2502629;53;26753;-52
2021/06/25 05:37:16;;;;;;;1.65;1.23;;;15.00;99.90;;;15.46;100.00;95309.00;2237524;55;26664;-51
2021/06/25 05:40:03;;;;;;;3.12;1.60;;;15.10;99.90;;;15.42;100.00;95310.00;2243864;54;28040;-51
2021/06/25 05:42:49;;;;;;;1.52;1.35;;;15.10;99.90;;;15.49;100.00;95314.00;2476339;54;26660;-51
2021/06/25 05:45:37;;;;;;;2.37;1.40;;;15.10;99.90;;;15.54;100.00;95317.00;2242099;54;27305;-50
2021/06/25 05:48:24;;;;;;;3.65;1.52;;;15.20;99.90;;;15.73;100.00;95308.00;2459135;54;26096;-51
2021/06/25 05:51:11;;;;;;;1.30;1.20;;;15.20;99.90;;;15.71;100.00;95305.00;2232604;55;26718;-52
2021/06/25 05:53:57;;;;;;;1.35;1.25;;;15.30;99.90;;;15.84;100.00;95302.00;2458344;54;27616;-52
2021/06/25 05:59:39;;;;;;;1.87;1.60;;;15.70;99.90;;;16.55;100.00;95285.00;2435017;54;34196;-51
2021/06/25 06:02:25;;;;;;;1.50;1.20;;;15.90;99.90;;;16.69;100.00;95289.00;2162966;56;26676;-51
2021/06/25 06:05:13;;;;;;;0.90;0.90;;;16.30;99.90;;;17.73;100.00;95280.00;2384061;56;26820;-51
2021/06/25 06:07:59;;;;;;;4.50;1.33;;;18.10;99.90;;;20.49;100.00;95275.00;2184909;57;26976;-52
2021/06/25 06:10:46;;;;;;;1.73;1.30;;;19.80;99.90;;;22.47;100.00;95267.00;2404027;56;27263;-51
2021/06/25 06:16:32;;;;;;;1.45;1.10;;;20.90;99.90;;;21.99;100.00;95281.00;2352700;56;33814;-52
2021/06/25 06:19:18;;;;;;;1.85;1.30;;;19.70;99.90;;;20.53;100.00;95279.00;2368917;56;26700;-52
2021/06/25 06:31:23;;;;;;;3.00;1.67;;;17.10;99.90;;;17.67;100.00;95293.00;2338480;57;26945;-51
2021/06/25 06:34:10;;;;;;;1.85;1.45;;;17.30;99.90;;;17.97;100.00;95290.00;2131331;57;26903;-52
2021/06/25 06:36:57;;;;;;;2.25;1.92;;;17.10;99.90;;;17.70;100.00;95288.00;2339010;57;26747;-50
2021/06/25 06:39:43;;;;;;;1.83;1.73;;;17.10;99.90;;;17.69;100.00;95283.00;2128383;56;27526;-51
2021/06/25 06:45:27;;;;;;;2.80;2.08;;;18.00;99.90;;;18.85;100.00;95282.00;2414824;55;33703;-51
2021/06/25 06:51:12;;;;;;;1.80;1.70;;;17.90;99.90;;;19.16;100.00;95279.00;2439701;53;34299;-51
2021/06/25 06:56:55;;;;;;;2.65;2.00;;;20.10;99.90;;;22.12;100.00;95265.00;2492280;52;33570;-52
2021/06/25 06:59:42;;;;;;;2.37;2.00;;;21.70;99.90;;;23.31;100.00;95275.00;2250906;54;26533;-52
2021/06/25 07:02:28;;;;;;;2.97;2.15;;;22.40;99.90;;;24.10;100.00;95277.00;2498961;53;26779;-51
2021/06/25 07:08:11;;;;;;;3.10;2.37;;;21.00;99.90;;;19.43;100.00;95285.00;2426128;54;33841;-52
2021/06/25 07:10:57;;;;;;;2.55;2.28;;;18.50;99.90;;;18.73;100.00;95281.00;2219223;55;26706;-51
2021/06/25 07:13:44;;;;;;;3.28;2.40;;;17.90;99.90;;;18.34;100.00;95279.00;2457411;54;27108;-51
2021/06/25 07:19:27;;;;;;;4.80;2.50;;;17.10;99.90;;;17.36;100.00;95286.00;2401247;55;34745;-51
2021/06/25 07:22:13;;;;;;;3.65;2.22;;;16.70;99.90;;;16.96;100.00;95295.00;2173528;56;26288;-51
2021/06/25 07:25:00;;;;;;;3.15;2.37;;;16.90;99.90;;;17.61;100.00;95294.00;2361500;56;26837;-51
2021/06/25 07:27:46;;;;;;;4.80;2.40;;;17.80;99.90;;;18.91;100.00;95284.00;2168450;56;26628;-51
2021/06/25 07:30:33;;;;;;;2.65;2.30;;;18.20;99.90;;;19.02;100.00;95291.00;2397799;55;26693;-51
2021/06/25 07:33:19;;;;;;;3.55;2.22;;;18.60;99.90;;;19.50;100.00;95291.00;2176631;56;26543;-51
2021/06/25 07:36:06;;;;;;;4.15;2.20;;;18.60;99.90;;;19.28;100.00;95288.00;2185626;56;26620;-51
2021/06/25 07:38:52;;;;;;;2.58;2.37;;;18.80;99.90;;;19.62;100.00;95291.00;2408549;55;27438;-51
2021/06/25 07:44:36;;;;;;;3.42;2.03;;;19.10;99.90;;;21.63;100.00;95283.00;2404033;55;34167;-51
2021/06/25 07:47:22;;;;;;;2.58;2.17;;;20.90;99.90;;;22.14;100.00;95281.00;2395296;56;27243;-50
2021/06/25 07:53:10;;;;;;;2.30;2.10;;;22.50;99.90;;;24.90;100.00;95273.00;2413933;55;33907;-51
2021/06/25 07:55:57;;;;;;;2.37;2.17;;;23.00;99.90;;;24.16;100.00;95282.00;2159867;56;26819;-51
2021/06/25 07:58:43;;;;;;;2.60;2.20;;;22.40;99.90;;;22.96;100.00;95282.00;2406169;55;26594;-51
2021/06/25 08:01:30;;;;;;;2.87;2.42;;;21.00;99.90;;;21.37;100.00;95278.00;2184222;56;27459;-51
2021/06/25 08:04:16;;;;;;;1.90;1.80;;;20.50;99.90;;;21.32;100.00;95272.00;2406201;55;26750;-51
2021/06/25 08:09:59;;;;;;;2.67;2.20;;;20.60;99.90;;;21.05;100.00;95276.00;2402203;55;33756;-51
2021/06/25 08:12:45;;;;;;;2.60;2.10;;;19.50;99.90;;;19.51;100.00;95279.00;2187041;55;26779;-51
2021/06/25 08:15:32;;;;;;;2.30;2.10;;;19.10;99.90;;;19.28;100.00;95274.00;2403119;55;27353;-51
2021/06/25 08:24:12;;;;;;;2.67;2.20;;;19.10;99.90;;;20.56;100.00;95252.00;2331517;55;33896;-52
2021/06/25 08:26:58;;;;;;;3.05;2.20;;;19.60;99.90;;;20.29;100.00;95267.00;2131679;56;27284;-51
2021/06/25 08:32:43;;;;;;;2.20;2.00;;;20.80;99.90;;;22.03;100.00;95260.00;2396099;55;33659;-51
2021/06/25 08:35:30;;;;;;;2.08;1.98;;;21.10;99.90;;;21.96;100.00;95260.00;2381018;55;27249;-51
2021/06/25 08:41:13;;;;;;;2.37;2.17;;;19.50;99.90;;;19.80;100.00;95259.00;2424539;55;33689;-51
2021/06/25 08:43:59;;;;;;;2.55;2.35;;;18.90;99.90;;;19.32;100.00;95268.00;2357537;55;26721;-50
2021/06/25 08:46:48;;;;;;;2.62;2.22;;;18.50;99.90;;;18.80;100.00;95269.00;2169508;57;27391;-51
2021/06/25 08:49:36;;;;;;;2.67;2.10;;;18.50;99.90;;;18.84;100.00;95261.00;2396451;56;26928;-51
2021/06/25 08:55:22;;;;;;;2.50;2.30;;;18.40;99.90;;;18.82;100.00;95261.00;2440018;53;33710;-51
2021/06/25 08:58:11;;;;;;;2.53;2.00;;;18.20;99.90;;;18.59;100.00;95266.00;2210458;54;26703;-50
2021/06/25 09:03:56;;;;;;;2.40;2.03;;;18.90;99.90;;;19.96;100.00;95258.00;2410449;55;33261;-51
2021/06/25 09:06:54;;;;;;;2.17;1.87;;;19.00;99.90;;;19.44;100.00;95266.00;2161911;56;26775;-51
2021/06/25 09:09:43;;;;;;;3.03;2.40;;;18.50;99.90;;;18.65;100.00;95271.00;2162124;56;27674;-51
2021/06/25 09:12:29;;;;;;;3.30;2.28;;;18.00;99.90;;;18.13;100.00;95267.00;2162490;56;26679;-51
2021/06/25 09:15:17;;;;;;;2.60;2.30;;;17.50;99.90;;;17.74;100.00;95270.00;2161815;56;26737;-51
2021/06/25 09:18:06;;;;;;;2.55;2.33;;;17.50;99.90;;;17.91;100.00;95266.00;2374314;56;26786;-50
2021/06/25 09:20:53;;;;;;;2.30;2.10;;;17.60;99.90;;;18.02;100.00;95264.00;2375504;56;26817;-50
2021/06/25 09:23:40;;;;;;;2.65;2.35;;;17.90;99.90;;;18.25;100.00;95264.00;2162293;56;26604;-51
2021/06/25 09:26:34;;;;;;;2.42;2.22;;;18.10;99.90;;;18.49;100.00;95257.00;2162400;56;26481;-51
2021/06/25 09:29:23;;;;;;;2.50;2.30;;;18.40;99.90;;;18.84;100.00;95267.00;2163101;56;27154;-51
2021/06/25 09:32:12;;;;;;;2.20;2.00;;;18.70;99.90;;;19.44;100.00;95262.00;2382362;56;26801;-51
2021/06/25 09:34:58;;;;;;;2.10;1.90;;;18.80;99.90;;;19.34;100.00;95265.00;2165488;57;26788;-51
2021/06/25 09:37:48;;;;;;;1.80;1.70;;;18.90;99.90;;;19.36;100.00;95263.00;2165313;57;27161;-52
2021/06/25 09:40:37;;;;;;;1.92;1.80;;;18.70;99.90;;;18.99;100.00;95273.00;2160849;57;26617;-51
2021/06/25 09:43:33;;;;;;;2.53;1.75;;;18.40;99.90;;;18.77;100.00;95267.00;2373041;56;26690;-51
2021/06/25 09:49:27;;;;;;;3.03;1.60;;;18.20;99.90;;;18.67;100.00;95258.00;2459351;54;34056;-51
2021/06/25 09:52:13;;;;;;;2.45;1.50;;;18.20;99.90;;;18.61;100.00;95253.00;2464318;54;26849;-51
2021/06/25 09:58:20;;;;;;;1.73;1.62;;;18.30;99.90;;;18.98;100.00;95255.00;2372602;55;34760;-51
2021/06/25 10:04:03;;;;;;;1.65;1.55;;;18.60;99.90;;;19.13;100.00;95268.00;2381523;55;34287;-52
2021/06/25 10:06:50;;;;;;;2.50;1.70;;;18.80;99.90;;;19.32;100.00;95265.00;2159917;56;26703;-49
2021/06/25 10:09:36;;;;;;;1.77;1.50;;;18.70;99.90;;;19.23;100.00;95264.00;2159396;58;26836;-50
2021/06/25 10:12:24;;;;;;;1.80;1.70;;;18.40;99.90;;;18.92;100.00;95267.00;2372003;57;26810;-50
2021/06/25 10:15:13;;;;;;;1.73;1.62;;;18.30;99.90;;;18.86;100.00;95262.00;2159363;58;27311;-51
2021/06/25 10:18:00;;;;;;;1.90;1.65;;;18.00;99.90;;;18.42;100.00;95256.00;2371978;57;27066;-51
2021/06/25 10:20:46;;;;;;;2.60;1.40;;;18.20;99.90;;;18.68;100.00;95248.00;2159896;58;26811;-50
2021/06/25 10:23:36;;;;;;;2.47;1.50;;;18.50;99.90;;;19.24;100.00;95255.00;2370879;57;26760;-50
2021/06/25 10:26:23;;;;;;;5.10;1.80;;;18.60;99.90;;;19.21;100.00;95244.00;2161040;56;26868;-49
2021/06/25 10:29:10;;;;;;;1.30;1.20;;;19.00;99.90;;;19.61;100.00;95247.00;2372438;56;26620;-51
2021/06/25 10:31:57;;;;;;;1.65;1.40;;;19.50;99.90;;;20.30;100.00;95243.00;2157849;56;26144;-54
2021/06/25 10:34:44;;;;;;;1.65;1.35;;;20.20;99.90;;;20.99;100.00;95243.00;2371366;56;26749;-51
2021/06/25 10:37:30;;;;;;;1.95;1.30;;;21.60;99.90;;;22.78;100.00;95234.00;2160726;58;26811;-51
2021/06/25 10:40:27;;;;;;;1.20;1.10;;;22.40;99.90;;;23.15;100.00;95235.00;2373466;56;26767;-50
2021/06/25 10:43:39;;;;;;;1.30;1.20;;;22.10;99.90;;;22.73;100.00;95240.00;2373776;56;26763;-50
2021/06/25 10:46:37;;;;;;;1.15;1.05;;;21.20;99.90;;;21.56;100.00;95242.00;2374061;57;26244;-50
2021/06/25 10:52:20;;;;;;;1.33;1.10;;;20.10;99.90;;;20.27;100.00;95231.00;2359258;55;34494;-51
2021/06/25 10:55:09;;;;;;;1.65;1.17;;;19.60;99.90;;;19.75;100.00;95232.00;2343689;56;27280;-51
2021/06/25 10:58:08;;;;;;;1.40;1.30;;;19.40;99.90;;;19.71;100.00;95231.00;2121690;57;26140;-50
2021/06/25 11:03:53;;;;;;;1.62;1.50;;;19.90;99.90;;;20.59;100.00;95232.00;2382423;55;34105;-51
2021/06/25 11:07:02;;;;;;;1.65;1.42;;;20.20;99.90;;;20.99;100.00;95232.00;2173858;56;26762;-51
2021/06/25 11:10:03;;;;;;;1.85;1.30;;;20.60;99.90;;;21.19;100.00;95228.00;2167721;56;26817;-51
2021/06/25 11:12:51;;;;;;;1.30;1.20;;;20.70;99.90;;;21.48;100.00;95225.00;2184141;56;26980;-51
2021/06/25 11:15:39;;;;;;;2.65;1.20;;;21.20;99.90;;;22.22;100.00;95227.00;2377228;56;27471;-51
2021/06/25 11:18:26;;;;;;;1.55;1.23;;;22.00;99.90;;;22.21;100.00;95226.00;2174829;56;26919;-51
2021/06/25 11:21:13;;;;;;;1.50;1.40;;;22.00;99.90;;;22.29;100.00;95222.00;2394494;56;26624;-51
2021/06/25 11:23:59;;;;;;;1.30;1.20;;;21.90;99.90;;;22.43;100.00;95220.00;2184745;56;26655;-51
2021/06/25 11:26:55;;;;;;;1.70;1.40;;;21.90;99.90;;;22.21;100.00;95218.00;2407586;56;26629;-51
2021/06/25 11:29:45;;;;;;;3.28;1.20;;;21.40;99.90;;;21.93;100.00;95212.00;2190004;56;26815;-51
2021/06/25 11:32:31;;;;;;;1.60;1.20;;;21.70;99.90;;;22.27;100.00;95223.00;2213824;56;26690;-51
2021/06/25 11:39:00;;;;;;;1.58;1.40;;;22.90;99.90;;;23.76;100.00;95208.00;2516467;53;33543;-51
2021/06/25 11:41:54;;;;;;;1.55;1.35;;;23.10;99.90;;;23.73;100.00;95205.00;2494912;53;26714;-51
2021/06/25 11:44:43;;;;;;;1.40;1.17;;;23.30;99.90;;;23.52;100.00;95208.00;2496925;54;26711;-52
2021/06/25 11:47:31;;;;;;;1.80;1.50;;;24.20;99.90;;;24.56;100.00;95207.00;2263527;54;26288;-51
2021/06/25 11:50:21;;;;;;;1.30;1.20;;;23.70;99.90;;;24.02;100.00;95206.00;2466687;55;26134;-51
2021/06/25 11:53:08;;;;;;;1.40;1.30;;;23.60;99.90;;;23.52;100.00;95209.00;2239339;54;26615;-51
2021/06/25 11:55:54;;;;;;;1.42;1.30;;;23.70;99.90;;;23.68;100.00;95202.00;2237853;56;26736;-51
2021/06/25 12:04:53;;;;;;;1.55;1.45;;;23.20;99.90;;;23.23;100.00;95197.00;2384865;54;33795;-51
2021/06/25 12:07:40;;;;;;;1.40;1.30;;;23.10;99.90;;;23.45;100.00;95202.00;2148695;56;26960;-51
2021/06/25 12:10:27;;;;;;;1.80;1.70;;;23.60;99.90;;;24.29;100.00;95187.00;2360409;56;26599;-51
2021/06/25 12:13:15;;;;;;;4.18;1.62;;;24.80;99.90;;;25.44;100.00;95197.00;2148431;56;27103;-51
2021/06/25 12:16:01;;;;;;;1.40;1.30;;;25.10;99.90;;;25.55;100.00;95194.00;2149536;56;27290;-51
2021/06/25 12:18:48;;;;;;;1.50;1.40;;;25.20;99.90;;;25.30;100.00;95180.00;2170225;56;27268;-51
2021/06/25 12:21:34;;;;;;;1.98;1.55;;;25.90;99.90;;;26.35;100.00;95193.00;2174307;56;27405;-52
2021/06/25 12:24:21;;;;;;;2.95;1.80;;;25.70;99.90;;;26.00;100.00;95188.00;2173781;56;27231;-51
2021/06/25 12:27:08;;;;;;;1.33;1.23;;;25.90;99.90;;;26.22;100.00;95187.00;2174474;56;27433;-51
2021/06/25 12:39:04;;;;;;;1.52;1.30;;;22.20;99.90;;;22.25;100.00;95184.00;2391012;54;34570;-50
2021/06/25 12:44:47;;;;;;;1.30;1.20;;;21.80;99.90;;;22.87;100.00;95177.00;2498937;53;34736;-51
2021/06/25 12:47:33;;;;;;;1.23;1.12;;;22.60;99.90;;;23.30;100.00;95185.00;2412311;54;27359;-51
2021/06/25 12:53:28;;;;;;;1.40;1.30;;;23.00;99.90;;;23.73;100.00;95165.00;2359357;56;34324;-51
2021/06/25 12:56:18;;;;;;;1.40;1.20;;;23.50;99.90;;;23.65;100.00;95182.00;2330450;57;26754;-51
2021/06/25 12:59:08;;;;;;;2.17;1.50;;;23.90;99.90;;;24.28;100.00;95170.00;2136154;57;27196;-51
2021/06/25 13:01:59;;;;;;;1.55;1.45;;;23.80;99.90;;;23.93;100.00;95171.00;2345340;58;27368;-51
2021/06/25 13:04:46;;;;;;;2.67;1.00;;;23.50;99.90;;;23.89;100.00;95167.00;2137538;57;26788;-52
2021/06/25 13:07:32;;;;;;;1.10;1.00;;;23.90;99.90;;;24.23;100.00;95168.00;2345070;58;26795;-51
2021/06/25 13:13:27;;;;;;;1.02;0.93;;;23.70;99.90;;;23.55;100.00;95163.00;2459280;53;33411;-51
2021/06/25 13:16:16;;;;;;;0.90;0.90;;;22.70;99.90;;;22.70;100.00;95170.00;2490987;53;26607;-52
2021/06/25 13:19:04;;;;;;;1.00;0.80;;;23.30;99.90;;;23.78;100.00;95163.00;2242584;54;26730;-51
2021/06/25 13:22:13;;;;;;;1.95;1.10;;;23.80;99.90;;;24.15;100.00;95160.00;2217265;55;27347;-50
2021/06/25 13:25:25;;;;;;;1.02;0.93;;;24.10;99.90;;;24.23;100.00;95160.00;2240946;53;26270;-51
2021/06/25 13:28:13;;;;;;;2.35;1.20;;;24.50;99.90;;;24.90;100.00;95154.00;2241514;53;27339;-51
2021/06/25 13:31:08;;;;;;;1.30;1.00;;;24.80;99.90;;;24.85;100.00;95165.00;2241117;54;26712;-51
2021/06/25 13:33:54;;;;;;;1.37;1.00;;;24.30;99.90;;;24.23;100.00;95164.00;2255914;54;27555;-51
2021/06/25 13:36:57;;;;;;;1.35;1.17;;;23.70;99.90;;;24.16;100.00;95164.00;2470432;54;27034;-52
2021/06/25 13:39:55;;;;;;;2.25;1.20;;;23.60;99.90;;;24.18;100.00;95151.00;2471554;53;27299;-51
2021/06/25 13:42:42;;;;;;;1.52;1.23;;;22.90;99.90;;;23.02;100.00;95153.00;2471886;54;27461;-51
2021/06/25 13:45:28;;;;;;;1.40;1.30;;;22.30;99.90;;;22.69;100.00;95151.00;2249757;54;26742;-52
2021/06/25 13:51:25;;;;;;;1.35;1.25;;;21.80;99.90;;;22.43;100.00;95143.00;2394216;55;33835;-50
2021/06/25 13:57:21;;;;;;;1.52;1.40;;;22.10;99.90;;;22.43;100.00;95143.00;2382573;55;34589;-51
2021/06/25 14:00:29;;;;;;;1.30;1.20;;;22.00;99.90;;;22.41;100.00;95146.00;2168960;56;26886;-51
2021/06/25 14:06:17;;;;;;;1.60;1.27;;;23.00;99.90;;;23.75;100.00;95141.00;2378264;55;33857;-52
2021/06/25 14:09:16;;;;;;;1.50;1.40;;;23.80;99.90;;;24.44;100.00;95152.00;2135779;57;27282;-51
2021/06/25 14:12:11;;;;;;;1.40;1.08;;;24.30;99.90;;;24.85;100.00;95144.00;2139221;56;26150;-51
2021/06/25 14:14:58;;;;;;;2.00;1.33;;;24.40;99.90;;;24.76;100.00;95152.00;2344199;56;27020;-50
2021/06/25 14:17:55;;;;;;;1.30;1.20;;;23.60;99.90;;;23.89;100.00;95150.00;2159008;56;26842;-52
2021/06/25 14:20:42;;;;;;;1.87;1.20;;;22.40;99.90;;;22.55;100.00;95158.00;2367408;57;26802;-51
2021/06/25 14:26:26;;;;;;;1.67;1.20;;;21.90;99.90;;;22.40;100.00;95157.00;2378866;55;34710;-51